TRAIL DU CHABLISIEN DE BEINE 13 KM
Distance13.00 
VilleBEINE 
Departement89 
Date14/05/2017 
Nombre de participants130 
Vainqueur hommeJABAFI NOUREDDINE 
Temps 01:42:00 
Vainqueur femme LE COQUET LELIA 
Temps 02:08:00 

Resultats des coureurs FFA de l'AJA Marathon
Nom, prenom Categorie Sexe Temps reel Temps officiel Place scratch Place sexe Place categorie Qualif France Performance FFA
MAIRE PIERRICK  SE  00:00:00  01:09:04     
BARBOTTE YANNICK  V2  00:00:00  01:13:10  11  11     
MENET ANTHONY  SE  00:00:00  01:14:40  13  13     
TRAMEAU RAYMOND  V4  00:00:00  01:18:52  24  23  11     
LAUVERGNAT CLET  V3  00:00:00  01:19:37  26  25     
SABATIER RODOLPHE  V1  00:00:00  01:20:27  32  31  17     
REVERDY THIERRY  V1  00:00:00  01:23:37  45  43  27     
PATRICE CHRISTOPHE  SE  00:00:00  01:24:12  52  48  14     
HUGUENY HERVE  V1  00:00:00  01:27:35  68  63  37     
ETHEVE LAURENT  V1  00:00:00  01:29:14  77  71  40     
CAMUS SYLVAIN  V2  00:00:00  01:29:51  78  72  41     
GUYON SANDRINE  V1  00:00:00  01:30:02  81     
SAGER VALERIE  V2  00:00:00  01:30:02  82     
ROBLIN CAROLE  V2  00:00:00  01:30:03  83     
HAJJI KHALID  V1  00:00:00  01:31:00  87  78  45     
JOURNET LAETITIA  V1  00:00:00  01:35:55  116  13     
BOUCHERON DENIS  V2  00:00:00  01:38:21  125  109  66     
LABOURIER ALEXANE  JU  00:00:00  01:39:43  136  20     
DOLZ ALEXANDRA  V1  00:00:00  01:40:45  146  22  16     
DEWEZ LAURENT  V1  00:00:00  01:40:52  147  125  78     
ZORCIE CARINE  V1  00:00:00  01:41:39  154  25  18     
FOURNIER CYRILLE  V1  00:00:00  01:43:43  159  131  83     
DAMON FRANCIS  V2  00:00:00  01:43:50  161  133  85     
BOUCHERON LAURETTE  V2  00:00:00  02:13:43  219  73  43